地図

経路データ

SID SEASON NUMBER BASIN SUBBASIN NAME ISO_TIME NATURE LAT LON WMO_WIND WMO_PRES WMO_AGENCY TRACK_TYPE DIST2LAND LANDFALL IFLAG USA_AGENCY USA_ATCF_ID USA_LAT USA_LON USA_RECORD USA_STATUS USA_WIND USA_PRES USA_SSHS USA_R34_NE USA_R34_SE USA_R34_SW USA_R34_NW USA_R50_NE USA_R50_SE USA_R50_SW USA_R50_NW USA_R64_NE USA_R64_SE USA_R64_SW USA_R64_NW USA_POCI USA_ROCI USA_RMW USA_EYE TOKYO_LAT TOKYO_LON TOKYO_GRADE TOKYO_WIND TOKYO_PRES TOKYO_R50_DIR TOKYO_R50_LONG TOKYO_R50_SHORT TOKYO_R30_DIR TOKYO_R30_LONG TOKYO_R30_SHORT TOKYO_LAND CMA_LAT CMA_LON CMA_CAT CMA_WIND CMA_PRES HKO_LAT HKO_LON HKO_CAT HKO_WIND HKO_PRES NEWDELHI_LAT NEWDELHI_LON NEWDELHI_GRADE NEWDELHI_WIND NEWDELHI_PRES NEWDELHI_CI NEWDELHI_DP NEWDELHI_POCI REUNION_LAT REUNION_LON REUNION_TYPE REUNION_WIND REUNION_PRES REUNION_TNUM REUNION_CI REUNION_RMW REUNION_R34_NE REUNION_R34_SE REUNION_R34_SW REUNION_R34_NW REUNION_R50_NE REUNION_R50_SE REUNION_R50_SW REUNION_R50_NW REUNION_R64_NE REUNION_R64_SE REUNION_R64_SW REUNION_R64_NW BOM_LAT BOM_LON BOM_TYPE BOM_WIND BOM_PRES BOM_TNUM BOM_CI BOM_RMW BOM_R34_NE BOM_R34_SE BOM_R34_SW BOM_R34_NW BOM_R50_NE BOM_R50_SE BOM_R50_SW BOM_R50_NW BOM_R64_NE BOM_R64_SE BOM_R64_SW BOM_R64_NW BOM_ROCI BOM_POCI BOM_EYE BOM_POS_METHOD BOM_PRES_METHOD NADI_LAT NADI_LON NADI_CAT NADI_WIND NADI_PRES WELLINGTON_LAT WELLINGTON_LON WELLINGTON_WIND WELLINGTON_PRES DS824_LAT DS824_LON DS824_STAGE DS824_WIND DS824_PRES TD9636_LAT TD9636_LON TD9636_STAGE TD9636_WIND TD9636_PRES TD9635_LAT TD9635_LON TD9635_WIND TD9635_PRES TD9635_ROCI NEUMANN_LAT NEUMANN_LON NEUMANN_CLASS NEUMANN_WIND NEUMANN_PRES MLC_LAT MLC_LON MLC_CLASS MLC_WIND MLC_PRES USA_GUST BOM_GUST BOM_GUST_PER REUNION_GUST REUNION_GUST_PER USA_SEAHGT USA_SEARAD_NE USA_SEARAD_SE USA_SEARAD_SW USA_SEARAD_NW STORM_SPEED STORM_DIR
1954322N08143 1954 92 WP MM NOT_NAMED 1954-11-18 00:00:00 TS 7.80000 143.000 main 1176 1165 __O___________ -1 7.80000 143.000 0 1008 13 288
1954322N08143 1954 92 WP MM NOT_NAMED 1954-11-18 03:00:00 TS 7.99272 142.388 main 1172 1163 __P___________ -1 7.99272 142.388 0 1008 13 289
1954322N08143 1954 92 WP MM NOT_NAMED 1954-11-18 06:00:00 TS 8.20000 141.800 main 1168 1164 __O___________ -1 8.20000 141.800 0 1008 12 291
1954322N08143 1954 92 WP MM NOT_NAMED 1954-11-18 09:00:00 TS 8.43486 141.250 main 1168 1168 __P___________ -1 8.43486 141.250 0 1007 12 295
1954322N08143 1954 92 WP MM NOT_NAMED 1954-11-18 12:00:00 TS 8.70000 140.700 main 1187 1184 __O___________ -1 8.70000 140.700 0 1007 13 296
1954322N08143 1954 92 WP MM NOT_NAMED 1954-11-18 15:00:00 TS 8.98498 140.100 main 1192 1188 __P___________ -1 8.98498 140.100 0 1007 13 297
1954322N08143 1954 92 WP MM NOT_NAMED 1954-11-18 18:00:00 TS 9.30000 139.500 main 1200 1196 __O___________ -1 9.30000 139.500 0 1007 13 300
1954322N08143 1954 92 WP MM NOT_NAMED 1954-11-18 21:00:00 TS 9.65741 138.935 main 1221 1218 __P___________ -1 9.65741 138.935 0 1007 13 303
1954322N08143 1954 92 WP MM NOT_NAMED 1954-11-19 00:00:00 TS 10.0000 138.400 main 1238 1235 __O___________ -1 10.0000 138.400 0 1007 12 300
1954322N08143 1954 92 WP MM NOT_NAMED 1954-11-19 03:00:00 TS 10.2499 137.892 main 1247 1227 __P___________ -1 10.2499 137.892 0 1006 11 297
1954322N08143 1954 92 WP MM NOT_NAMED 1954-11-19 06:00:00 TS 10.5000 137.400 main 1227 1183 __O___________ -1 10.5000 137.400 0 1005 11 300
1954322N08143 1954 92 WP MM NOT_NAMED 1954-11-19 09:00:00 TS 10.8275 136.892 main 1183 1138 __P___________ -1 10.8275 136.892 0 1005 12 305
1954322N08143 1954 92 WP MM NOT_NAMED 1954-11-19 12:00:00 TS 11.2000 136.400 main 1138 1103 __O___________ -1 11.2000 136.400 0 1005 12 309
1954322N08143 1954 92 WP MM NOT_NAMED 1954-11-19 15:00:00 TS 11.5774 135.950 main 1095 1063 __P___________ -1 11.5774 135.950 0 1005 12 312
1954322N08143 1954 92 WP MM NOT_NAMED 1954-11-19 18:00:00 TS 12.0000 135.500 main 1063 1014 __O___________ -1 12.0000 135.500 0 1005 13 312
1954322N08143 1954 92 WP MM NOT_NAMED 1954-11-19 21:00:00 TS 12.4627 134.955 main 1016 970 __P___________ -1 12.4627 134.955 0 1005 14 316
1954322N08143 1954 92 WP MM NOT_NAMED 1954-11-20 00:00:00 TS 13.0000 134.500 main 972 959 __O___________ -1 13.0000 134.500 0 1005 14 330
1954322N08143 1954 92 WP MM NOT_NAMED 1954-11-20 03:00:00 TS 13.6348 134.275 main 967 959 __P___________ -1 13.6348 134.275 0 1005 13 347
1954322N08143 1954 92 WP MM NOT_NAMED 1954-11-20 06:00:00 TS 14.3000 134.200 main 970 970 __O___________ -1 14.3000 134.200 0 1005 13 355
1954322N08143 1954 92 WP MM NOT_NAMED 1954-11-20 09:00:00 TS 14.8925 134.162 main 988 988 __P___________ -1 14.8925 134.162 0 1005 12 1
1954322N08143 1954 92 WP MM NOT_NAMED 1954-11-20 12:00:00 TS 15.5000 134.200 main 1009 1009 __O___________ -1 15.5000 134.200 1 23 1005 13 4
1954322N08143 1954 92 WP MM NOT_NAMED 1954-11-20 15:00:00 TS 16.2074 134.255 main 1049 1049 __P___________ -1 16.2074 134.255 1 23 1005 14 8
1954322N08143 1954 92 WP MM NOT_NAMED 1954-11-20 18:00:00 TS 16.9000 134.400 main 1092 1092 __O___________ -1 16.9000 134.400 1 23 1005 13 15
1954322N08143 1954 92 WP MM NOT_NAMED 1954-11-20 21:00:00 TS 17.4796 134.603 main 1143 1143 __P___________ -1 17.4796 134.603 1 23 1005 12 27
1954322N08143 1954 92 WP MM NOT_NAMED 1954-11-21 00:00:00 TS 18.0000 135.000 main 1208 1208 __O___________ -1 18.0000 135.000 1 23 1005 14 44
1954322N08143 1954 92 WP MM NOT_NAMED 1954-11-21 03:00:00 TS 18.5147 135.638 main 1292 1292 __P___________ -1 18.5147 135.638 1 23 1005 17 55
1954322N08143 1954 92 WP MM NOT_NAMED 1954-11-21 06:00:00 TS 19.0000 136.500 main 1402 1402 __O___________ -1 19.0000 136.500 1 23 1005 20 62
1954322N08143 1954 92 WP MM NOT_NAMED 1954-11-21 09:00:00 TS 19.4572 137.483 main 1454 1453 __P___________ -1 19.4572 137.483 1 23 1005 22 66
1954322N08143 1954 92 WP MM NOT_NAMED 1954-11-21 12:00:00 TS 19.9000 138.600 main 1470 1466 __O___________ -1 19.9000 138.600 1 23 1005 24 68
1954322N08143 1954 92 WP MM NOT_NAMED 1954-11-21 15:00:00 TS 20.3580 139.822 main 1486 1486 __P___________ -1 20.3580 139.822 1 23 1005 24 68
1954322N08143 1954 92 WP MM NOT_NAMED 1954-11-21 18:00:00 TS 20.8000 141.000 main 1497 1484 __O___________ -1 20.8000 141.000 1 23 1005 22 67
1954322N08143 1954 92 WP MM NOT_NAMED 1954-11-21 21:00:00 TS 21.2214 141.961 main 1492 1481 __P___________ -1 21.2214 141.961 1 1006 19 65
1954322N08143 1954 92 WP MM NOT_NAMED 1954-11-22 00:00:00 TS 21.6000 142.800 main 1486 1480 __O___________ -1 21.6000 142.800 0 1007 17 65
1954322N08143 1954 92 WP MM NOT_NAMED 1954-11-22 03:00:00 TS 21.9372 143.638 main 1493 1478 __P___________ -1 21.9372 143.638 0 1007 16 68
1954322N08143 1954 92 WP MM NOT_NAMED 1954-11-22 06:00:00 TS 22.2000 144.400 main 1483 1478 __O___________ -1 22.2000 144.400 0 1007 14 72
1954322N08143 1954 92 WP MM NOT_NAMED 1954-11-22 09:00:00 TS 22.3754 145.075 main 1483 1483 __P___________ -1 22.3754 145.075 0 1007 12 76
1954322N08143 1954 92 WP MM NOT_NAMED 1954-11-22 12:00:00 TS 22.5000 145.700 main 1494 __O___________ -1 22.5000 145.700 0 1007 12 78

デジタル台風データ・検索

IBTrACS Databaseについて

本データベースは、米国NOAAが公開する1842年以降の世界の熱帯低気圧のベストトラックデータアーカイブInternational Best Track Archive for Climate Stewardship (IBTrACS)を、ウェブで閲覧しやすい形式に変換したものです。

最終更新日:2021-10-08